createdAt,value
2022-10-11T00:00:49.175Z,99762.50
2022-10-11T00:03:17.373Z,99766.75
2022-10-11T00:05:45.215Z,99758.47
2022-10-11T00:08:13.792Z,99758.28
2022-10-11T00:10:42.594Z,99744.78
2022-10-11T00:13:21.683Z,99750.63
2022-10-11T00:16:07.929Z,99759.41
2022-10-11T00:18:47.296Z,99763.16
2022-10-11T00:21:27.434Z,99758.81
2022-10-11T00:24:07.713Z,99758.44
2022-10-11T00:26:48.173Z,99756.63
2022-10-11T00:29:26.783Z,99755.59
2022-10-11T00:32:07.292Z,99753.91
2022-10-11T00:34:47.112Z,99756.13
2022-10-11T00:37:27.723Z,99747.31
2022-10-11T00:40:13.802Z,99752.88
2022-10-11T00:42:54.274Z,99750.72
2022-10-11T00:45:34.480Z,99745.16
2022-10-11T00:48:22.452Z,99748.22
2022-10-11T00:51:03.996Z,99740.59
2022-10-11T00:53:43.746Z,99742.66
2022-10-11T00:56:27.884Z,99743.50
2022-10-11T00:59:12.933Z,99738.12
2022-10-11T01:01:53.605Z,99748.69
2022-10-11T01:04:32.031Z,99738.38
2022-10-11T01:07:12.269Z,99743.19
2022-10-11T01:09:52.863Z,99744.97
2022-10-11T01:12:33.434Z,99742.37
2022-10-11T01:15:42.455Z,99743.78
2022-10-11T01:18:27.973Z,99739.53
2022-10-11T01:21:28.997Z,99735.44
2022-10-11T01:24:43.002Z,99740.31
2022-10-11T01:27:46.121Z,99734.84
2022-10-11T01:30:32.644Z,99727.94
2022-10-11T01:33:21.982Z,99727.31
2022-10-11T01:36:10.918Z,99725.13
2022-10-11T01:38:54.353Z,99724.91
2022-10-11T01:41:38.913Z,99723.97
2022-10-11T01:44:20.609Z,99726.06
2022-10-11T01:46:59.714Z,99715.56
2022-10-11T01:49:40.203Z,99722.19
2022-10-11T01:52:20.155Z,99724.81
2022-10-11T01:55:23.502Z,99718.22
2022-10-11T01:58:11.985Z,99720.56
2022-10-11T02:01:01.044Z,99718.41
2022-10-11T02:03:45.162Z,99722.97
2022-10-11T02:06:40.413Z,99716.56
2022-10-11T02:09:27.212Z,99723.75
2022-10-11T02:12:10.417Z,99710.28
2022-10-11T02:14:51.643Z,99716.66
2022-10-11T02:17:34.883Z,99712.09
2022-10-11T02:20:20.283Z,99714.25
2022-10-11T02:23:11.413Z,99727.66
2022-10-11T02:25:51.044Z,99727.09
2022-10-11T02:28:36.753Z,99719.78
2022-10-11T02:31:18.005Z,99721.88
2022-10-11T02:34:01.452Z,99717.69
2022-10-11T02:37:14.753Z,99725.53
2022-10-11T02:40:04.255Z,99721.13
2022-10-11T02:42:48.733Z,99726.75
2022-10-11T02:45:36.216Z,99725.88
2022-10-11T02:48:14.343Z,99729.63
2022-10-11T02:50:54.263Z,99724.94
2022-10-11T02:53:34.443Z,99729.63
2022-10-11T02:56:14.974Z,99734.19
2022-10-11T02:58:55.112Z,99725.44
2022-10-11T03:01:35.271Z,99729.72
2022-10-11T03:04:15.430Z,99731.41
2022-10-11T03:06:55.994Z,99729.09
2022-10-11T03:09:36.223Z,99725.88
2022-10-11T03:12:16.808Z,99731.00
2022-10-11T03:14:58.483Z,99720.97
2022-10-11T03:17:38.605Z,99725.22
2022-10-11T03:20:19.335Z,99728.94
2022-10-11T03:22:59.575Z,99728.78
2022-10-11T03:25:39.672Z,99735.00
2022-10-11T03:28:20.024Z,99736.13
2022-10-11T03:30:58.354Z,99733.59
2022-10-11T03:33:38.694Z,99739.28
2022-10-11T03:36:19.174Z,99745.72
2022-10-11T03:39:00.162Z,99742.75
2022-10-11T03:41:39.215Z,99740.38
2022-10-11T03:44:19.884Z,99749.81
2022-10-11T03:47:00.468Z,99755.25
2022-10-11T03:49:43.564Z,99758.06
2022-10-11T03:52:22.361Z,99751.97
2022-10-11T03:55:02.494Z,99754.53
2022-10-11T03:57:43.075Z,99751.56
2022-10-11T04:00:21.372Z,99751.78
2022-10-11T04:03:03.914Z,99759.28
2022-10-11T04:05:43.418Z,99751.34
2022-10-11T04:08:40.984Z,99755.09
2022-10-11T04:11:21.673Z,99754.81
2022-10-11T04:14:02.482Z,99753.91
2022-10-11T04:16:42.143Z,99758.47
2022-10-11T04:19:22.053Z,99767.06
2022-10-11T04:22:00.417Z,99753.41
2022-10-11T04:24:39.088Z,99759.41
2022-10-11T04:27:19.214Z,99762.81
2022-10-11T04:29:59.446Z,99750.94
2022-10-11T04:32:39.555Z,99750.09
2022-10-11T04:35:20.053Z,99744.31
2022-10-11T04:38:00.203Z,99746.56
2022-10-11T04:40:40.335Z,99752.59
2022-10-11T04:43:20.794Z,99758.19
2022-10-11T04:45:59.054Z,99751.38
2022-10-11T04:48:39.753Z,99756.34
2022-10-11T04:51:21.383Z,99761.31
2022-10-11T04:54:01.751Z,99764.81
2022-10-11T04:56:41.752Z,99756.09
2022-10-11T04:59:21.832Z,99752.16
2022-10-11T05:02:02.182Z,99753.09
2022-10-11T05:04:42.974Z,99761.09
2022-10-11T05:07:22.285Z,99765.59
2022-10-11T05:10:03.071Z,99752.84
2022-10-11T05:12:43.204Z,99762.06
2022-10-11T05:15:21.752Z,99761.38
2022-10-11T05:18:01.853Z,99763.84
2022-10-11T05:20:41.774Z,99764.13
2022-10-11T05:23:21.955Z,99768.62
2022-10-11T05:26:03.342Z,99766.91
2022-10-11T05:28:43.934Z,99762.91
2022-10-11T05:31:24.710Z,99777.09
2022-10-11T05:34:04.925Z,99774.63
2022-10-11T05:36:44.706Z,99785.13
2022-10-11T05:39:25.563Z,99780.37
2022-10-11T05:42:09.644Z,99786.34
2022-10-11T05:44:50.391Z,99785.25
2022-10-11T05:47:30.593Z,99803.56
2022-10-11T05:50:11.208Z,99790.97
2022-10-11T05:52:51.307Z,99797.88
2022-10-11T05:55:36.196Z,99798.13
2022-10-11T05:58:18.829Z,99806.41
2022-10-11T06:00:58.594Z,99807.03
2022-10-11T06:03:37.167Z,99810.50
2022-10-11T06:06:17.533Z,99815.91
2022-10-11T06:08:57.933Z,99806.09
2022-10-11T06:11:38.514Z,99811.94
2022-10-11T06:14:18.572Z,99811.47
2022-10-11T06:16:58.885Z,99813.78
2022-10-11T06:19:38.984Z,99815.16
2022-10-11T06:22:19.193Z,99817.16
2022-10-11T06:24:59.696Z,99823.16
2022-10-11T06:27:40.113Z,99826.94
2022-10-11T06:30:19.901Z,99825.84
2022-10-11T06:33:04.615Z,99822.03
2022-10-11T06:35:45.442Z,99832.75
2022-10-11T06:38:26.404Z,99831.34
2022-10-11T06:41:20.826Z,99833.78
2022-10-11T06:44:00.759Z,99836.47
2022-10-11T06:46:41.365Z,99833.59
2022-10-11T06:49:23.553Z,99840.66
2022-10-11T06:52:05.320Z,99840.72
2022-10-11T06:54:45.848Z,99836.91
2022-10-11T06:57:26.200Z,99845.03
2022-10-11T07:00:12.876Z,99835.28
2022-10-11T07:02:53.883Z,99841.56
2022-10-11T07:05:34.965Z,99838.91
2022-10-11T07:08:15.688Z,99844.62
2022-10-11T07:11:04.386Z,99842.91
2022-10-11T07:13:52.026Z,99849.34
2022-10-11T07:16:31.412Z,99851.47
2022-10-11T07:19:12.291Z,99847.94
2022-10-11T07:21:53.501Z,99849.19
2022-10-11T07:24:37.823Z,99846.63
2022-10-11T07:27:19.043Z,99843.38
2022-10-11T07:29:59.111Z,99844.56
2022-10-11T07:32:39.905Z,99851.81
2022-10-11T07:35:19.393Z,99844.28
2022-10-11T07:37:59.550Z,99847.22
2022-10-11T07:40:45.331Z,99843.66
2022-10-11T07:43:24.694Z,99854.28
2022-10-11T07:46:06.389Z,99855.53
2022-10-11T07:48:51.185Z,99851.44
2022-10-11T07:51:33.293Z,99852.00
2022-10-11T07:54:12.834Z,99858.28
2022-10-11T07:56:54.187Z,99857.31
2022-10-11T07:59:33.697Z,99857.09
2022-10-11T08:02:13.376Z,99862.25
2022-10-11T08:04:54.634Z,99863.31
2022-10-11T08:07:34.540Z,99861.09
2022-10-11T08:10:14.961Z,99857.75
2022-10-11T08:12:57.676Z,99862.31
2022-10-11T08:15:40.588Z,99861.00
2022-10-11T08:18:22.097Z,99858.06
2022-10-11T08:21:09.317Z,99862.72
2022-10-11T08:23:48.983Z,99857.16
2022-10-11T08:26:28.835Z,99867.84
2022-10-11T08:29:09.289Z,99862.03
2022-10-11T08:31:49.707Z,99871.28
2022-10-11T08:34:29.749Z,99861.25
2022-10-11T08:37:09.992Z,99859.72
2022-10-11T08:39:50.429Z,99863.06
2022-10-11T08:42:47.854Z,99865.19
2022-10-11T08:45:43.124Z,99869.41
2022-10-11T08:48:34.865Z,99856.28
2022-10-11T08:51:46.634Z,99859.81
2022-10-11T08:54:36.984Z,99859.44
2022-10-11T08:57:20.976Z,99857.00
2022-10-11T09:00:04.967Z,99865.72
2022-10-11T09:03:29.934Z,99854.84
2022-10-11T09:06:31.635Z,99862.66
2022-10-11T09:09:23.736Z,99859.41
2022-10-11T09:12:16.068Z,99855.56
2022-10-11T09:15:25.970Z,99860.34
2022-10-11T09:18:09.985Z,99861.88
2022-10-11T09:21:20.353Z,99870.78
2022-10-11T09:24:06.706Z,99871.09
2022-10-11T09:26:44.203Z,99871.09
2022-10-11T09:29:50.918Z,99873.59
2022-10-11T09:32:21.524Z,99874.66
2022-10-11T09:35:01.206Z,99881.28
2022-10-11T09:37:38.492Z,99874.19
2022-10-11T09:40:23.047Z,99875.72
2022-10-11T09:42:51.310Z,99873.81
2022-10-11T09:45:21.746Z,99872.16
2022-10-11T09:47:52.332Z,99874.84
2022-10-11T09:50:23.801Z,99874.25
2022-10-11T09:53:00.592Z,99869.81
2022-10-11T09:55:43.552Z,99868.66
2022-10-11T09:58:26.615Z,99873.00
2022-10-11T10:01:22.391Z,99875.34
2022-10-11T10:04:06.654Z,99866.78
2022-10-11T10:06:34.974Z,99865.38
2022-10-11T10:09:27.495Z,99870.03
2022-10-11T10:11:56.186Z,99863.87
2022-10-11T10:14:30.366Z,99862.88
2022-10-11T10:17:01.236Z,99863.31
2022-10-11T10:19:29.916Z,99859.66
2022-10-11T10:21:58.083Z,99858.59
2022-10-11T10:24:38.616Z,99863.97
2022-10-11T10:27:23.085Z,99858.38
2022-10-11T10:30:09.839Z,99853.66
2022-10-11T10:32:48.654Z,99861.22
2022-10-11T10:35:25.846Z,99861.16
2022-10-11T10:37:59.846Z,99867.09
2022-10-11T10:40:58.441Z,99867.19
2022-10-11T10:43:35.573Z,99869.34
2022-10-11T10:46:22.339Z,99862.31
2022-10-11T10:52:24.982Z,99862.50
2022-10-11T10:55:16.974Z,99861.72
2022-10-11T10:57:53.872Z,99862.31
2022-10-11T11:00:23.343Z,99861.06
2022-10-11T11:03:01.616Z,99850.56
2022-10-11T11:05:48.663Z,99853.31
2022-10-11T11:08:43.401Z,99854.03
2022-10-11T11:11:33.733Z,99851.38
2022-10-11T11:14:20.106Z,99854.53
2022-10-11T11:17:09.235Z,99849.63
2022-10-11T11:19:37.333Z,99852.06
2022-10-11T11:22:39.301Z,99853.41
2022-10-11T11:25:45.247Z,99849.16
2022-10-11T11:28:26.910Z,99847.25
2022-10-11T11:31:13.752Z,99843.22
2022-10-11T11:34:12.553Z,99845.34
2022-10-11T11:36:54.853Z,99848.63
2022-10-11T11:39:25.663Z,99843.13
2022-10-11T11:42:13.767Z,99842.41
2022-10-11T11:44:45.343Z,99840.91
2022-10-11T11:47:26.665Z,99836.41
2022-10-11T11:50:23.313Z,99833.37
2022-10-11T11:53:05.748Z,99838.56
2022-10-11T11:55:52.671Z,99831.34
2022-10-11T11:58:39.183Z,99835.50
2022-10-11T12:01:30.294Z,99830.72
2022-10-11T12:04:05.749Z,99828.84
2022-10-11T12:06:37.932Z,99824.63
2022-10-11T12:09:21.774Z,99822.34
2022-10-11T12:12:01.052Z,99819.63
2022-10-11T12:14:32.282Z,99819.13
2022-10-11T12:17:15.915Z,99824.66
2022-10-11T12:20:01.953Z,99822.06
2022-10-11T12:22:29.663Z,99824.16
2022-10-11T12:25:14.954Z,99822.34
2022-10-11T12:27:50.905Z,99815.09
2022-10-11T12:30:44.356Z,99818.41
2022-10-11T12:33:21.575Z,99815.66
2022-10-11T12:35:55.738Z,99807.41
2022-10-11T12:38:30.080Z,99814.16
2022-10-11T12:41:18.709Z,99810.09
2022-10-11T12:43:49.255Z,99806.59
2022-10-11T12:46:29.376Z,99805.97
2022-10-11T12:49:16.204Z,99805.19
2022-10-11T12:52:17.937Z,99800.03
2022-10-11T12:55:07.184Z,99804.69
2022-10-11T12:58:12.542Z,99804.16
2022-10-11T13:00:40.286Z,99803.37
2022-10-11T13:03:35.483Z,99804.88
2022-10-11T13:06:16.651Z,99810.81
2022-10-11T13:08:49.529Z,99805.66
2022-10-11T13:11:46.133Z,99806.44
2022-10-11T13:14:18.273Z,99803.09
2022-10-11T13:16:57.754Z,99809.25
2022-10-11T13:19:27.121Z,99809.16
2022-10-11T13:21:58.477Z,99802.75
2022-10-11T13:24:28.721Z,99806.22
2022-10-11T13:26:57.334Z,99808.06
2022-10-11T13:29:41.467Z,99806.88
2022-10-11T13:32:20.333Z,99815.09
2022-10-11T13:34:54.001Z,99805.06
2022-10-11T13:37:25.044Z,99809.66
2022-10-11T13:39:54.793Z,99807.00
2022-10-11T13:42:31.888Z,99808.28
2022-10-11T13:45:01.092Z,99804.69
2022-10-11T13:47:31.035Z,99805.31
2022-10-11T13:50:23.624Z,99806.97
2022-10-11T13:52:56.214Z,99812.41
2022-10-11T13:55:34.316Z,99803.66
2022-10-11T13:58:09.068Z,99809.44
2022-10-11T14:00:38.788Z,99809.22
2022-10-11T14:03:13.401Z,99816.56
2022-10-11T14:05:43.213Z,99811.25
2022-10-11T14:08:36.430Z,99809.56
2022-10-11T14:11:06.813Z,99806.19
2022-10-11T14:13:39.883Z,99805.31
2022-10-11T14:16:08.860Z,99812.22
2022-10-11T14:18:50.626Z,99808.31
2022-10-11T14:21:37.076Z,99809.50
2022-10-11T14:24:08.123Z,99813.78
2022-10-11T14:26:42.174Z,99806.94
2022-10-11T14:29:19.325Z,99814.03
2022-10-11T14:31:47.316Z,99811.63
2022-10-11T14:34:22.460Z,99805.91
2022-10-11T14:36:51.203Z,99809.84
2022-10-11T14:39:24.273Z,99811.78
2022-10-11T14:41:52.675Z,99807.53
2022-10-11T14:44:22.163Z,99814.62
2022-10-11T14:46:54.055Z,99816.06
2022-10-11T14:49:25.833Z,99813.00
2022-10-11T14:51:55.665Z,99813.66
2022-10-11T14:54:25.340Z,99810.34
2022-10-11T14:56:55.672Z,99816.38
2022-10-11T14:59:26.393Z,99813.19
2022-10-11T15:01:54.582Z,99817.31
2022-10-11T15:04:25.123Z,99819.91
2022-10-11T15:06:54.940Z,99816.88
2022-10-11T15:09:29.215Z,99810.06
2022-10-11T15:11:57.750Z,99816.50
2022-10-11T15:14:26.183Z,99813.38
2022-10-11T15:16:54.183Z,99818.09
2022-10-11T15:19:25.135Z,99823.19
2022-10-11T15:21:53.043Z,99824.28
2022-10-11T15:24:21.055Z,99829.34
2022-10-11T15:26:49.552Z,99830.38
2022-10-11T15:29:18.237Z,99832.66
2022-10-11T15:31:46.581Z,99839.50
2022-10-11T15:34:14.731Z,99837.41
2022-10-11T15:36:44.335Z,99834.09
2022-10-11T15:39:27.646Z,99830.88
2022-10-11T15:41:57.696Z,99837.00
2022-10-11T15:44:25.975Z,99836.41
2022-10-11T15:46:54.143Z,99832.66
2022-10-11T15:49:22.381Z,99839.31
2022-10-11T15:51:50.322Z,99835.66
2022-10-11T15:54:18.442Z,99847.78
2022-10-11T15:56:46.780Z,99850.41
2022-10-11T15:59:14.603Z,99842.78
2022-10-11T16:01:42.793Z,99845.16
2022-10-11T16:04:11.035Z,99855.69
2022-10-11T16:06:39.056Z,99855.50
2022-10-11T16:09:07.255Z,99859.16
2022-10-11T16:11:35.393Z,99855.72
2022-10-11T16:14:03.320Z,99864.47
2022-10-11T16:16:31.035Z,99861.25
2022-10-11T16:18:59.173Z,99868.31
2022-10-11T16:21:28.173Z,99861.50
2022-10-11T16:23:56.096Z,99866.81
2022-10-11T16:26:24.376Z,99876.06
2022-10-11T16:28:53.079Z,99874.84
2022-10-11T16:31:21.363Z,99884.94
2022-10-11T16:33:50.399Z,99883.72
2022-10-11T16:36:37.964Z,99879.75
2022-10-11T16:39:11.649Z,99883.25
2022-10-11T16:41:39.652Z,99888.34
2022-10-11T16:44:08.204Z,99899.72
2022-10-11T16:46:36.279Z,99895.03
2022-10-11T16:49:04.943Z,99894.78
2022-10-11T16:51:33.203Z,99892.50
2022-10-11T16:54:01.173Z,99896.81
2022-10-11T16:56:29.661Z,99894.25
2022-10-11T16:58:57.992Z,99895.44
2022-10-11T17:01:26.203Z,99905.00
2022-10-11T17:03:54.343Z,99909.06
2022-10-11T17:06:22.905Z,99909.00
2022-10-11T17:08:50.710Z,99898.94
2022-10-11T17:11:19.042Z,99904.91
2022-10-11T17:13:47.863Z,99906.06
2022-10-11T17:16:16.894Z,99908.25
2022-10-11T17:18:44.643Z,99911.50
2022-10-11T17:21:15.622Z,99911.84
2022-10-11T17:23:43.785Z,99918.78
2022-10-11T17:26:20.871Z,99916.78
2022-10-11T17:28:49.366Z,99920.34
2022-10-11T17:31:17.616Z,99922.34
2022-10-11T17:33:45.696Z,99924.16
2022-10-11T17:36:19.677Z,99922.28
2022-10-11T17:38:49.304Z,99929.47
2022-10-11T17:41:18.441Z,99930.00
2022-10-11T17:43:46.534Z,99935.94
2022-10-11T17:46:16.044Z,99922.94
2022-10-11T17:48:45.667Z,99928.16
2022-10-11T17:51:16.385Z,99929.22
2022-10-11T17:53:46.832Z,99929.59
2022-10-11T17:56:28.341Z,99934.28
2022-10-11T17:58:59.125Z,99928.97
2022-10-11T18:01:29.727Z,99929.31
2022-10-11T18:04:00.195Z,99929.25
2022-10-11T18:06:30.885Z,99924.00
2022-10-11T18:09:04.194Z,99929.75
2022-10-11T18:11:32.511Z,99924.75
2022-10-11T18:14:01.172Z,99929.12
2022-10-11T18:16:30.400Z,99929.91
2022-10-11T18:18:59.370Z,99930.63
2022-10-11T18:21:33.590Z,99924.09
2022-10-11T18:24:06.095Z,99933.78
2022-10-11T18:26:34.453Z,99935.34
2022-10-11T18:29:05.545Z,99937.47
2022-10-11T18:31:35.389Z,99936.94
2022-10-11T18:34:05.086Z,99937.91
2022-10-11T18:36:33.047Z,99941.22
2022-10-11T18:39:03.576Z,99941.75
2022-10-11T18:41:32.945Z,99937.41
2022-10-11T18:44:06.120Z,99942.94
2022-10-11T18:46:36.419Z,99938.53
2022-10-11T18:49:04.613Z,99931.00
2022-10-11T18:51:40.922Z,99932.00
2022-10-11T18:54:12.910Z,99926.34
2022-10-11T18:56:43.475Z,99929.75
2022-10-11T18:59:11.755Z,99925.84
2022-10-11T19:01:41.757Z,99923.06
2022-10-11T19:04:11.358Z,99923.13
2022-10-11T19:06:43.229Z,99929.38
2022-10-11T19:09:18.052Z,99933.75
2022-10-11T19:11:46.538Z,99933.25
2022-10-11T19:14:17.621Z,99931.41
2022-10-11T19:16:49.773Z,99941.84
2022-10-11T19:19:20.208Z,99941.19
2022-10-11T19:21:48.974Z,99941.28
2022-10-11T19:24:21.332Z,99938.16
2022-10-11T19:26:49.551Z,99942.78
2022-10-11T19:29:20.009Z,99945.59
2022-10-11T19:31:55.544Z,99947.09
2022-10-11T19:34:27.104Z,99949.34
2022-10-11T19:36:56.684Z,99947.41
2022-10-11T19:39:25.696Z,99947.25
2022-10-11T19:41:54.963Z,99946.41
2022-10-11T19:44:23.122Z,99945.69
2022-10-11T19:46:52.902Z,99946.09
2022-10-11T19:49:25.107Z,99953.81
2022-10-11T19:51:53.823Z,99950.09
2022-10-11T19:54:21.751Z,99952.47
2022-10-11T19:56:49.701Z,99944.88
2022-10-11T19:59:18.553Z,99938.66
2022-10-11T20:01:51.931Z,99948.28
2022-10-11T20:07:10.077Z,99944.47
2022-10-11T20:09:38.185Z,99953.84
2022-10-11T20:12:06.223Z,99956.47
2022-10-11T20:14:33.934Z,99952.16
2022-10-11T20:17:02.203Z,99959.97
2022-10-11T20:19:31.281Z,99958.44
2022-10-11T20:22:00.970Z,99965.44
2022-10-11T20:24:33.402Z,99962.72
2022-10-11T20:27:06.525Z,99966.44
2022-10-11T20:29:34.843Z,99966.12
2022-10-11T20:32:02.952Z,99958.69
2022-10-11T20:34:30.774Z,99963.72
2022-10-11T20:37:02.455Z,99962.63
2022-10-11T20:39:41.722Z,99965.19
2022-10-11T20:42:10.270Z,99963.50
2022-10-11T20:44:38.053Z,99963.75
2022-10-11T20:47:05.993Z,99967.47
2022-10-11T20:49:34.240Z,99962.31
2022-10-11T20:52:02.152Z,99970.72
2022-10-11T20:54:30.846Z,99971.09
2022-10-11T20:56:59.380Z,99968.06
2022-10-11T20:59:27.394Z,99965.03
2022-10-11T21:01:55.375Z,99969.75
2022-10-11T21:04:23.575Z,99961.16
2022-10-11T21:06:51.390Z,99971.44
2022-10-11T21:09:19.409Z,99963.22
2022-10-11T21:11:47.548Z,99965.91
2022-10-11T21:14:15.460Z,99962.31
2022-10-11T21:16:43.533Z,99962.34
2022-10-11T21:19:14.707Z,99964.91
2022-10-11T21:21:43.095Z,99961.91
2022-10-11T21:24:11.162Z,99963.31
2022-10-11T21:26:39.809Z,99965.28
2022-10-11T21:29:08.625Z,99967.06
2022-10-11T21:31:36.776Z,99966.31
2022-10-11T21:34:07.034Z,99965.69
2022-10-11T21:36:35.287Z,99963.97
2022-10-11T21:39:03.944Z,99973.00
2022-10-11T21:41:31.757Z,99973.25
2022-10-11T21:44:01.272Z,99978.94
2022-10-11T21:49:19.347Z,99969.47
2022-10-11T21:51:47.534Z,99971.28
2022-10-11T21:54:15.265Z,99967.16
2022-10-11T21:56:43.423Z,99973.97
2022-10-11T21:59:12.605Z,99966.44
2022-10-11T22:01:41.933Z,99966.06
2022-10-11T22:04:11.385Z,99970.66
2022-10-11T22:06:39.502Z,99964.66
2022-10-11T22:09:08.652Z,99968.94
2022-10-11T22:11:37.036Z,99975.03
2022-10-11T22:14:04.932Z,99972.69
2022-10-11T22:16:33.880Z,99969.97
2022-10-11T22:19:02.172Z,99968.19
2022-10-11T22:21:30.774Z,99967.31
2022-10-11T22:23:58.612Z,99967.38
2022-10-11T22:26:30.254Z,99970.91
2022-10-11T22:28:58.883Z,99963.28
2022-10-11T22:31:27.052Z,99967.53
2022-10-11T22:33:56.037Z,99969.22
2022-10-11T22:36:24.548Z,99961.59
2022-10-11T22:38:53.074Z,99970.22
2022-10-11T22:41:21.183Z,99965.09
2022-10-11T22:43:49.013Z,99966.72
2022-10-11T22:46:17.359Z,99973.62
2022-10-11T22:48:45.176Z,99974.56
2022-10-11T22:51:12.953Z,99970.37
2022-10-11T22:53:41.013Z,99967.78
2022-10-11T22:56:09.475Z,99964.34
2022-10-11T22:58:37.724Z,99960.63
2022-10-11T23:01:14.814Z,99968.38
2022-10-11T23:03:43.496Z,99966.72
2022-10-11T23:06:11.713Z,99971.19
2022-10-11T23:08:39.574Z,99961.50
2022-10-11T23:11:08.264Z,99963.28
2022-10-11T23:13:36.339Z,99966.84
2022-10-11T23:16:09.070Z,99971.22
2022-10-11T23:18:37.654Z,99977.34
2022-10-11T23:21:06.463Z,99978.34
2022-10-11T23:23:34.363Z,99978.31
2022-10-11T23:26:05.111Z,99972.00
2022-10-11T23:28:33.340Z,99987.69
2022-10-11T23:31:01.296Z,99978.16
2022-10-11T23:33:29.776Z,99975.44
2022-10-11T23:35:57.503Z,99983.31
2022-10-11T23:38:25.265Z,99979.84
2022-10-11T23:40:53.404Z,99985.06
2022-10-11T23:43:21.256Z,99982.50
2022-10-11T23:45:48.973Z,99992.16
2022-10-11T23:48:19.075Z,99988.47
2022-10-11T23:50:47.074Z,99993.69
2022-10-11T23:53:14.855Z,99998.94
2022-10-11T23:55:42.944Z,99991.06
2022-10-11T23:58:10.727Z,100000.66
